createdAt,value
2019-03-12T00:03:44.759Z,16.07
2019-03-12T00:08:49.988Z,17.93
2019-03-12T00:13:55.443Z,20.70
2019-03-12T00:19:00.925Z,15.67
2019-03-12T00:24:07.020Z,17.53
2019-03-12T00:29:12.433Z,20.97
2019-03-12T00:34:17.862Z,26.53
2019-03-12T00:39:23.695Z,18.27
2019-03-12T00:44:29.110Z,21.80
2019-03-12T00:49:34.556Z,18.60
2019-03-12T00:54:39.995Z,19.80
2019-03-12T00:59:45.421Z,21.37
2019-03-12T01:04:51.223Z,18.47
2019-03-12T01:09:56.638Z,18.33
2019-03-12T01:15:02.486Z,23.30
2019-03-12T01:20:10.222Z,17.23
2019-03-12T01:25:15.689Z,19.07
2019-03-12T01:30:21.119Z,22.73
2019-03-12T01:35:26.922Z,23.03
2019-03-12T01:40:33.439Z,18.53
2019-03-12T01:45:38.900Z,22.83
2019-03-12T01:50:44.666Z,23.80
2019-03-12T01:55:50.469Z,17.63
2019-03-12T02:00:55.891Z,19.70
2019-03-12T02:06:01.680Z,18.67
2019-03-12T02:11:07.435Z,14.83
2019-03-12T02:16:13.230Z,18.20
2019-03-12T02:21:18.705Z,17.50
2019-03-12T02:26:24.122Z,17.20
2019-03-12T02:31:29.880Z,17.10
2019-03-12T02:36:35.547Z,20.10
2019-03-12T02:41:41.419Z,14.47
2019-03-12T02:46:46.866Z,20.80
2019-03-12T02:51:52.628Z,20.47
2019-03-12T02:56:58.451Z,19.27
2019-03-12T03:02:04.508Z,26.23
2019-03-12T03:07:17.211Z,22.13
2019-03-12T03:12:22.996Z,28.77
2019-03-12T03:17:28.419Z,29.17
2019-03-12T03:22:33.857Z,31.83
2019-03-12T03:27:39.286Z,29.67
2019-03-12T03:32:44.722Z,35.83
2019-03-12T03:37:50.664Z,30.73
2019-03-12T03:42:56.189Z,33.53
2019-03-12T03:48:01.650Z,29.77
2019-03-12T03:53:07.414Z,33.37
2019-03-12T03:58:12.864Z,33.70
2019-03-12T04:03:18.332Z,32.20
2019-03-12T04:08:24.474Z,36.90
2019-03-12T04:13:29.944Z,36.97
2019-03-12T04:18:35.403Z,31.90
2019-03-12T04:23:40.845Z,36.03
2019-03-12T04:28:46.295Z,34.50
2019-03-12T04:34:31.011Z,36.27
2019-03-12T04:39:36.775Z,34.80
2019-03-12T04:44:42.187Z,33.13
2019-03-12T04:49:47.619Z,34.80
2019-03-12T04:54:53.386Z,40.97
2019-03-12T04:59:58.815Z,36.47
2019-03-12T05:05:04.555Z,32.60
2019-03-12T05:10:11.790Z,42.97
2019-03-12T05:15:17.289Z,33.67
2019-03-12T05:20:22.731Z,33.60
2019-03-12T05:25:28.206Z,39.57
2019-03-12T05:30:33.727Z,30.63
2019-03-12T05:35:39.166Z,31.00
2019-03-12T05:40:44.984Z,35.90
2019-03-12T05:45:50.414Z,31.37
2019-03-12T05:50:55.846Z,34.77
2019-03-12T05:56:01.418Z,27.50
2019-03-12T06:01:07.613Z,28.27
2019-03-12T06:06:13.186Z,26.27
2019-03-12T06:11:19.300Z,26.83
2019-03-12T06:16:24.761Z,29.23
2019-03-12T06:21:30.305Z,24.07
2019-03-12T06:26:36.219Z,22.40
2019-03-12T06:33:50.362Z,22.43
2019-03-12T06:38:59.862Z,14.20
2019-03-12T06:44:14.370Z,18.97
2019-03-12T06:49:25.890Z,17.50
2019-03-12T06:54:38.167Z,19.43
2019-03-12T06:59:47.672Z,17.97
2019-03-12T07:05:00.386Z,15.77
2019-03-12T07:10:12.996Z,11.53
2019-03-12T07:15:26.883Z,9.20
2019-03-12T07:20:37.346Z,10.80
2019-03-12T07:25:51.163Z,21.07
2019-03-12T07:31:01.046Z,12.83
2019-03-12T07:36:15.811Z,11.73
2019-03-12T07:41:32.309Z,16.47
2019-03-12T07:46:36.186Z,13.83
2019-03-12T07:51:52.102Z,16.40
2019-03-12T07:57:04.577Z,12.03
2019-03-12T08:03:17.033Z,15.63
2019-03-12T08:08:32.598Z,13.90
2019-03-12T08:13:42.097Z,17.33
2019-03-12T08:18:53.483Z,17.60
2019-03-12T08:24:05.994Z,19.63
2019-03-12T08:29:16.589Z,16.17
2019-03-12T08:34:29.108Z,15.60
2019-03-12T08:39:47.562Z,9.37
2019-03-12T08:47:03.561Z,12.83
2019-03-12T08:52:15.403Z,15.73
2019-03-12T08:59:33.266Z,16.37
2019-03-12T09:04:42.894Z,16.10
2019-03-12T09:11:57.294Z,20.30
2019-03-12T09:17:08.710Z,14.30
2019-03-12T09:22:22.169Z,18.97
2019-03-12T09:27:33.566Z,12.30
2019-03-12T09:33:12.951Z,14.03
2019-03-12T09:38:24.986Z,12.70
2019-03-12T09:43:36.562Z,8.83
2019-03-12T09:48:46.420Z,13.80
2019-03-12T09:54:02.186Z,14.30
2019-03-12T09:59:15.343Z,10.67
2019-03-12T10:04:29.191Z,11.80
2019-03-12T10:09:39.944Z,9.17
2019-03-12T10:16:53.523Z,13.50
2019-03-12T10:22:10.006Z,6.80
2019-03-12T10:27:51.738Z,6.57
2019-03-12T10:33:02.530Z,13.00
2019-03-12T10:38:33.187Z,6.60
2019-03-12T10:43:46.559Z,5.20
2019-03-12T10:48:52.020Z,8.67
2019-03-12T10:53:57.497Z,7.50
2019-03-12T10:59:03.392Z,9.00
2019-03-12T11:04:08.839Z,3.27
2019-03-12T11:09:14.291Z,6.67
2019-03-12T11:14:19.782Z,5.20
2019-03-12T11:19:25.243Z,5.33
2019-03-12T11:24:31.051Z,4.60
2019-03-12T11:29:36.569Z,3.93
2019-03-12T11:34:42.023Z,4.43
2019-03-12T11:39:47.803Z,7.07
2019-03-12T11:44:53.647Z,1.60
2019-03-12T11:49:59.455Z,4.50
2019-03-12T11:55:05.653Z,4.10
2019-03-12T12:00:14.052Z,4.60
2019-03-12T12:05:19.495Z,2.70
2019-03-12T12:10:24.963Z,7.80
2019-03-12T12:15:30.733Z,3.53
2019-03-12T12:20:36.187Z,1.77
2019-03-12T12:25:41.957Z,7.13
2019-03-12T12:30:47.775Z,6.43
2019-03-12T12:35:53.894Z,1.20
2019-03-12T12:40:59.366Z,1.97
2019-03-12T12:46:05.267Z,2.87
2019-03-12T12:51:11.107Z,2.47
2019-03-12T12:56:16.551Z,6.00
2019-03-12T13:01:22.391Z,2.90
2019-03-12T13:06:27.843Z,4.43
2019-03-12T13:11:33.290Z,2.50
2019-03-12T13:16:39.062Z,3.67
2019-03-12T13:21:44.491Z,2.70
2019-03-12T13:26:50.647Z,2.50
2019-03-12T13:31:57.158Z,2.00
2019-03-12T13:37:03.199Z,2.27
2019-03-12T13:42:08.720Z,3.53
2019-03-12T13:47:14.850Z,2.17
2019-03-12T13:52:20.382Z,6.03
2019-03-12T13:57:25.815Z,1.37
2019-03-12T14:02:31.660Z,4.33
2019-03-12T14:07:37.472Z,1.27
2019-03-12T14:12:42.978Z,2.60
2019-03-12T14:17:48.796Z,2.77
2019-03-12T14:22:54.569Z,1.77
2019-03-12T14:28:00.092Z,2.83
2019-03-12T14:33:05.744Z,5.07
2019-03-12T14:38:11.207Z,4.00
2019-03-12T14:43:16.647Z,1.40
2019-03-12T14:49:03.364Z,1.70
2019-03-12T14:54:08.852Z,5.33
2019-03-12T14:59:14.499Z,2.10
2019-03-12T15:04:20.285Z,3.47
2019-03-12T15:09:26.813Z,2.67
2019-03-12T15:14:32.262Z,6.23
2019-03-12T15:19:37.751Z,9.40
2019-03-12T15:24:43.258Z,4.50
2019-03-12T15:29:48.711Z,10.53
2019-03-12T15:34:54.502Z,10.60
2019-03-12T15:39:59.950Z,8.13
2019-03-12T15:45:05.846Z,6.07
2019-03-12T15:50:11.332Z,7.50
2019-03-12T15:55:16.767Z,5.50
2019-03-12T16:00:22.198Z,3.67
2019-03-12T16:05:28.331Z,6.50
2019-03-12T16:10:34.453Z,5.87
2019-03-12T16:15:40.207Z,7.97
2019-03-12T16:20:45.655Z,7.53
2019-03-12T16:25:51.103Z,9.00
2019-03-12T16:30:56.564Z,11.73
2019-03-12T16:36:02.872Z,8.50
2019-03-12T16:41:08.661Z,3.53
2019-03-12T16:46:14.606Z,4.83
2019-03-12T16:51:20.015Z,6.10
2019-03-12T16:56:25.443Z,5.13
2019-03-12T17:01:30.897Z,6.70
2019-03-12T17:06:36.513Z,6.20
2019-03-12T17:11:43.249Z,7.87
2019-03-12T17:16:48.970Z,2.73
2019-03-12T17:21:54.782Z,4.40
2019-03-12T17:27:00.225Z,4.83
2019-03-12T17:32:06.343Z,3.57
2019-03-12T17:37:12.611Z,4.23
2019-03-12T17:42:18.233Z,2.87
2019-03-12T17:47:23.759Z,2.87
2019-03-12T17:52:29.199Z,7.90
2019-03-12T17:57:34.635Z,3.10
2019-03-12T18:02:42.822Z,7.43
2019-03-12T18:07:45.819Z,5.17
2019-03-12T18:12:51.431Z,5.50
2019-03-12T18:17:57.646Z,3.70
2019-03-12T18:23:03.528Z,6.10
2019-03-12T18:28:09.845Z,4.20
2019-03-12T18:33:15.312Z,3.70
2019-03-12T18:38:20.788Z,5.77
2019-03-12T18:43:26.456Z,4.03
2019-03-12T18:48:32.636Z,3.97
2019-03-12T18:53:38.078Z,5.40
2019-03-12T18:58:43.678Z,8.10
2019-03-12T19:03:49.125Z,9.23
2019-03-12T19:08:55.288Z,7.10
2019-03-12T19:14:00.834Z,5.27
2019-03-12T19:19:06.432Z,6.83
2019-03-12T19:24:12.303Z,5.30
2019-03-12T19:29:17.753Z,3.20
2019-03-12T19:34:30.928Z,5.10
2019-03-12T19:39:37.723Z,4.57
2019-03-12T19:44:43.705Z,3.43
2019-03-12T19:49:49.220Z,4.37
2019-03-12T19:54:55.274Z,2.53
2019-03-12T20:00:00.745Z,6.73
2019-03-12T20:05:07.395Z,4.80
2019-03-12T20:10:52.340Z,3.23
2019-03-12T20:17:14.220Z,8.67
2019-03-12T20:24:57.451Z,4.23
2019-03-12T20:31:03.503Z,5.00
2019-03-12T20:37:26.923Z,2.83
2019-03-12T20:45:30.769Z,4.20
2019-03-12T20:51:07.228Z,2.67
2019-03-12T21:00:36.474Z,3.73
2019-03-12T21:10:09.697Z,5.07
2019-03-12T21:15:43.167Z,8.80
2019-03-12T21:24:07.165Z,5.60
2019-03-12T21:29:37.003Z,6.60
2019-03-12T21:34:42.610Z,5.63
2019-03-12T21:39:55.011Z,4.73
2019-03-12T21:44:54.298Z,5.83
2019-03-12T21:49:59.826Z,2.20
2019-03-12T21:55:06.151Z,4.67
2019-03-12T22:00:15.030Z,3.50
2019-03-12T22:05:20.754Z,3.23
2019-03-12T22:10:26.267Z,3.90
2019-03-12T22:15:32.077Z,3.37
2019-03-12T22:20:37.535Z,6.07
2019-03-12T22:25:43.014Z,1.90
2019-03-12T22:30:49.213Z,4.13
2019-03-12T22:35:54.678Z,5.50
2019-03-12T22:41:00.454Z,3.47
2019-03-12T22:46:05.934Z,3.27
2019-03-12T22:51:12.154Z,2.47
2019-03-12T22:56:17.595Z,4.83
2019-03-12T23:01:23.789Z,5.30
2019-03-12T23:06:29.583Z,5.87
2019-03-12T23:11:35.262Z,4.07
2019-03-12T23:16:41.047Z,5.63
2019-03-12T23:21:46.817Z,6.50
2019-03-12T23:26:52.398Z,7.40
2019-03-12T23:31:58.258Z,4.53
2019-03-12T23:37:04.542Z,8.77
2019-03-12T23:42:10.686Z,2.87
2019-03-12T23:47:16.477Z,6.67
2019-03-12T23:52:22.348Z,5.07
2019-03-12T23:57:27.831Z,3.60
